Observations for LEVALDIGI, Italy (LIMZ)

LIMZ 181450Z 01006KT CAVOK 19/04 Q1023  
LIMZ 181350Z 35007KT CAVOK 19/06 Q1023  
LIMZ 181250Z VRB06KT CAVOK 19/08 Q1024  
LIMZ 181150Z 05007KT CAVOK 18/07 Q1024  
LIMZ 181050Z 02007KT 350V060 CAVOK 17/08 Q1024  
LIMZ 180950Z 02007KT 340V040 CAVOK 17/10 Q1024  
LIMZ 180850Z 36006KT 330V050 CAVOK 15/09 Q1024  
LIMZ 180750Z 35006KT 320V040 CAVOK 14/08 Q1024  
LIMZ 180650Z 32004KT 290V350 CAVOK 12/08 Q1024  
LIMZ 180550Z 26004KT CAVOK 08/06 Q1023  
LIMZ 180500Z 25004KT CAVOK 07/05 Q1023
LIMZ 171850Z 31003KT CAVOK 15/08 Q1020  
LIMZ 171750Z 33003KT CAVOK 16/09 Q1019  
LIMZ 171650Z 01005KT CAVOK 17/04 Q1019  
LIMZ 171550Z 35004KT 320V030 CAVOK 18/05 Q1019  
LIMZ 171450Z 04003KT 340V110 CAVOK 19/06 Q1019